Notice: Undefined index: language in /home/elkynec/airliberiava.com/vam/index.php on line 25
Air Liberia Virtual
 METAR AND TAF INFORMATION
METAR FOR DIAP
ADDS - METARS form results

(2147 UTC 31 May 2020)
Data provider http://aviationweather.gov/metar/data/
 
METAR text: DIAP 312130Z 24007KT 9999 FEW012 28/26 Q1014 NOSIG
Conditions at: DIAP (ABIDJAN/PORT BOU, CI) observed 2130 UTC 31 May 2020
Temperature: 28.0°C (82°F)
Dewpoint: 26.0°C (79°F) [RH = 89%]
Pressure (altimeter): 29.94 inches Hg (1014.0 mb)
Winds: from the WSW (240 degrees) at 8 MPH (7 knots; 3.6 m/s)
Visibility: 6 or more miles (10+ km)
Ceiling: at least 12,000 feet AGL
Clouds: few clouds at 1200 feet AGL
Weather: no significant weather observed at this time

METAR text: DIAP 312100Z 24007KT 9999 FEW012 28/26 Q1014 NOSIG
Conditions at: DIAP (ABIDJAN/PORT BOU, CI) observed 2100 UTC 31 May 2020
Temperature: 28.0°C (82°F)
Dewpoint: 26.0°C (79°F) [RH = 89%]
Pressure (altimeter): 29.94 inches Hg (1014.0 mb)
Winds: from the WSW (240 degrees) at 8 MPH (7 knots; 3.6 m/s)
Visibility: 6 or more miles (10+ km)
Ceiling: at least 12,000 feet AGL
Clouds: few clouds at 1200 feet AGL
Weather: no significant weather observed at this time

Forecast for: DIAP (ABIDJAN/PORT BOU, CI)
Text: TAF DIAP 311730Z 3118/0124 22010KT 8000 TS BKN012 FEW020CB
Forecast period: 1800 to 2200 UTC 31 May 2020
Forecast type: FROM: standard forecast or significant change
Winds: from the SW (220 degrees) at 12 MPH (10 knots; 5.1 m/s)
Visibility: 5 miles (8 km)
Ceiling: 1200 feet AGL
Clouds: broken clouds at 1200 feet AGL
few clouds at 2000 feet AGL
Weather: TS  (thunderstorm)
Text: BECMG 3122/3123 NSW SCT011
Forecast period: 2200 UTC 31 May 2020 to 0000 UTC 02 June 2020
Forecast type: BECOMING: Conditions expected to become as follows by 2300 UTC 31 May 2020
Winds: from the SW (220 degrees) at 12 MPH (10 knots; 5.1 m/s)
Visibility: 5 miles (8 km)
Ceiling: at least 12,000 feet AGL
Clouds: scattered clouds at 1100 feet AGL
Weather: NSW  (no significant weather)

 AIRPORT MAP

 RUNWAY INFORMATION
Runway 03 Runway length 9843 ft Runway width 164 ft
Runway elevation 21 ft Runway displaced threshold 0 ft Runway heading 23
Runway 21 Runway length 9843 ft Runway width 164 ft
Runway elevation 11 ft Runway displaced threshold 0 ft Runway heading 203

 AIRPORT FREQUENCIES
Type A/G Name RDO Frequency 568 MHZ
Type ACC Name CON Frequency 121.1 MHZ
Type AFIS Name INFO Frequency 129.1 MHZ
Type ATIS Name ATIS Frequency 126.6 MHZ
Type MISC Name VHF/DF Frequency 118.1 MHZ
Type TWR Name TWR Frequency 118.1 MHZ

 AIRPORT NEAR NAVIGATION AIDS